sensor_id;sensor_type;location;lat;lon;timestamp;P1;durP1;ratioP1;P2;durP2;ratioP2
25721;SDS011;13578;53.450;15.496;2024-01-10T00:01:48;53.65;;;29.27;;
25721;SDS011;13578;53.450;15.496;2024-01-10T00:04:49;59.35;;;30.35;;
25721;SDS011;13578;53.450;15.496;2024-01-10T00:07:50;55.72;;;29.30;;
25721;SDS011;13578;53.450;15.496;2024-01-10T00:10:54;80.68;;;36.05;;
25721;SDS011;13578;53.450;15.496;2024-01-10T00:13:54;84.03;;;35.90;;
25721;SDS011;13578;53.450;15.496;2024-01-10T00:17:00;76.22;;;33.67;;
25721;SDS011;13578;53.450;15.496;2024-01-10T00:20:00;81.93;;;36.15;;
25721;SDS011;13578;53.450;15.496;2024-01-10T00:23:02;83.00;;;37.67;;
25721;SDS011;13578;53.450;15.496;2024-01-10T00:26:03;76.90;;;33.58;;
25721;SDS011;13578;53.450;15.496;2024-01-10T00:29:04;91.63;;;35.40;;
25721;SDS011;13578;53.450;15.496;2024-01-10T00:32:05;58.63;;;28.83;;
25721;SDS011;13578;53.450;15.496;2024-01-10T00:35:06;85.80;;;35.65;;
25721;SDS011;13578;53.450;15.496;2024-01-10T00:38:07;83.32;;;37.22;;
25721;SDS011;13578;53.450;15.496;2024-01-10T00:41:07;80.60;;;35.78;;
25721;SDS011;13578;53.450;15.496;2024-01-10T00:44:08;61.78;;;32.30;;
25721;SDS011;13578;53.450;15.496;2024-01-10T00:47:11;78.00;;;36.78;;
25721;SDS011;13578;53.450;15.496;2024-01-10T00:50:11;86.82;;;39.50;;
25721;SDS011;13578;53.450;15.496;2024-01-10T00:53:12;106.20;;;41.78;;
25721;SDS011;13578;53.450;15.496;2024-01-10T00:56:13;89.47;;;38.05;;
25721;SDS011;13578;53.450;15.496;2024-01-10T00:59:14;72.90;;;34.35;;
25721;SDS011;13578;53.450;15.496;2024-01-10T01:02:14;81.97;;;37.40;;
25721;SDS011;13578;53.450;15.496;2024-01-10T01:05:15;120.70;;;49.00;;
25721;SDS011;13578;53.450;15.496;2024-01-10T01:08:16;124.05;;;51.20;;
25721;SDS011;13578;53.450;15.496;2024-01-10T01:11:16;202.23;;;74.20;;
25721;SDS011;13578;53.450;15.496;2024-01-10T01:14:17;128.50;;;48.95;;
25721;SDS011;13578;53.450;15.496;2024-01-10T01:17:18;99.07;;;41.55;;
25721;SDS011;13578;53.450;15.496;2024-01-10T01:20:18;74.30;;;34.35;;
25721;SDS011;13578;53.450;15.496;2024-01-10T01:23:19;76.10;;;33.88;;
25721;SDS011;13578;53.450;15.496;2024-01-10T01:26:19;66.97;;;32.28;;
25721;SDS011;13578;53.450;15.496;2024-01-10T01:29:20;55.25;;;31.02;;
25721;SDS011;13578;53.450;15.496;2024-01-10T01:32:21;100.40;;;40.22;;
25721;SDS011;13578;53.450;15.496;2024-01-10T01:35:21;89.18;;;39.97;;
25721;SDS011;13578;53.450;15.496;2024-01-10T01:38:22;65.95;;;32.05;;
25721;SDS011;13578;53.450;15.496;2024-01-10T01:41:23;54.85;;;30.27;;
25721;SDS011;13578;53.450;15.496;2024-01-10T01:44:23;63.28;;;29.75;;
25721;SDS011;13578;53.450;15.496;2024-01-10T01:47:24;53.58;;;28.77;;
25721;SDS011;13578;53.450;15.496;2024-01-10T01:50:27;60.33;;;30.00;;
25721;SDS011;13578;53.450;15.496;2024-01-10T01:53:27;62.90;;;29.17;;
25721;SDS011;13578;53.450;15.496;2024-01-10T01:56:29;68.35;;;29.73;;
25721;SDS011;13578;53.450;15.496;2024-01-10T01:59:29;66.60;;;27.38;;
25721;SDS011;13578;53.450;15.496;2024-01-10T02:02:30;65.68;;;28.60;;
25721;SDS011;13578;53.450;15.496;2024-01-10T02:05:32;80.88;;;30.15;;
25721;SDS011;13578;53.450;15.496;2024-01-10T02:08:33;70.45;;;31.90;;
25721;SDS011;13578;53.450;15.496;2024-01-10T02:11:34;74.07;;;34.45;;
25721;SDS011;13578;53.450;15.496;2024-01-10T02:14:35;81.43;;;32.33;;
25721;SDS011;13578;53.450;15.496;2024-01-10T02:17:36;78.80;;;36.60;;
25721;SDS011;13578;53.450;15.496;2024-01-10T02:20:37;70.90;;;31.27;;
25721;SDS011;13578;53.450;15.496;2024-01-10T02:23:37;78.85;;;32.10;;
25721;SDS011;13578;53.450;15.496;2024-01-10T02:26:39;84.15;;;32.72;;
25721;SDS011;13578;53.450;15.496;2024-01-10T02:29:39;73.22;;;32.72;;
25721;SDS011;13578;53.450;15.496;2024-01-10T02:32:40;76.60;;;32.17;;
25721;SDS011;13578;53.450;15.496;2024-01-10T02:35:41;78.55;;;34.25;;
25721;SDS011;13578;53.450;15.496;2024-01-10T02:38:41;73.15;;;32.45;;
25721;SDS011;13578;53.450;15.496;2024-01-10T02:41:42;60.33;;;29.58;;
25721;SDS011;13578;53.450;15.496;2024-01-10T02:44:43;71.00;;;33.13;;
25721;SDS011;13578;53.450;15.496;2024-01-10T02:47:44;77.63;;;35.47;;
25721;SDS011;13578;53.450;15.496;2024-01-10T02:50:45;99.85;;;37.67;;
25721;SDS011;13578;53.450;15.496;2024-01-10T02:53:46;69.93;;;32.88;;
25721;SDS011;13578;53.450;15.496;2024-01-10T02:56:46;76.70;;;34.00;;
25721;SDS011;13578;53.450;15.496;2024-01-10T02:59:47;73.45;;;36.05;;
25721;SDS011;13578;53.450;15.496;2024-01-10T03:02:48;74.50;;;36.30;;
25721;SDS011;13578;53.450;15.496;2024-01-10T03:05:49;71.80;;;36.63;;
25721;SDS011;13578;53.450;15.496;2024-01-10T03:08:49;77.20;;;38.83;;
25721;SDS011;13578;53.450;15.496;2024-01-10T03:11:50;78.18;;;39.50;;
25721;SDS011;13578;53.450;15.496;2024-01-10T03:14:51;79.55;;;36.30;;
25721;SDS011;13578;53.450;15.496;2024-01-10T03:17:51;86.25;;;38.95;;
25721;SDS011;13578;53.450;15.496;2024-01-10T03:20:52;90.88;;;38.28;;
25721;SDS011;13578;53.450;15.496;2024-01-10T03:23:56;90.97;;;37.42;;
25721;SDS011;13578;53.450;15.496;2024-01-10T03:26:58;71.00;;;35.20;;
25721;SDS011;13578;53.450;15.496;2024-01-10T03:29:58;73.35;;;36.58;;
25721;SDS011;13578;53.450;15.496;2024-01-10T03:32:59;85.88;;;37.95;;
25721;SDS011;13578;53.450;15.496;2024-01-10T03:36:00;102.07;;;40.83;;
25721;SDS011;13578;53.450;15.496;2024-01-10T03:39:00;85.57;;;41.22;;
25721;SDS011;13578;53.450;15.496;2024-01-10T03:42:01;86.70;;;39.42;;
25721;SDS011;13578;53.450;15.496;2024-01-10T03:45:03;91.45;;;38.78;;
25721;SDS011;13578;53.450;15.496;2024-01-10T03:48:05;95.95;;;38.05;;
25721;SDS011;13578;53.450;15.496;2024-01-10T03:51:06;78.97;;;38.17;;
25721;SDS011;13578;53.450;15.496;2024-01-10T03:54:07;78.78;;;35.95;;
25721;SDS011;13578;53.450;15.496;2024-01-10T03:57:07;83.57;;;37.67;;
25721;SDS011;13578;53.450;15.496;2024-01-10T04:00:08;79.38;;;37.83;;
25721;SDS011;13578;53.450;15.496;2024-01-10T04:03:09;83.82;;;36.03;;
25721;SDS011;13578;53.450;15.496;2024-01-10T04:06:10;74.32;;;36.70;;
25721;SDS011;13578;53.450;15.496;2024-01-10T04:09:11;78.85;;;36.03;;
25721;SDS011;13578;53.450;15.496;2024-01-10T04:12:13;95.47;;;39.20;;
25721;SDS011;13578;53.450;15.496;2024-01-10T04:15:13;86.43;;;39.22;;
25721;SDS011;13578;53.450;15.496;2024-01-10T04:18:14;93.28;;;39.95;;
25721;SDS011;13578;53.450;15.496;2024-01-10T04:21:15;88.43;;;42.17;;
25721;SDS011;13578;53.450;15.496;2024-01-10T04:24:16;85.95;;;41.17;;
25721;SDS011;13578;53.450;15.496;2024-01-10T04:27:17;113.65;;;43.80;;
25721;SDS011;13578;53.450;15.496;2024-01-10T04:30:21;87.78;;;41.78;;
25721;SDS011;13578;53.450;15.496;2024-01-10T04:33:21;95.70;;;40.45;;
25721;SDS011;13578;53.450;15.496;2024-01-10T04:36:22;94.47;;;42.58;;
25721;SDS011;13578;53.450;15.496;2024-01-10T04:39:24;96.10;;;46.17;;
25721;SDS011;13578;53.450;15.496;2024-01-10T04:42:25;96.22;;;43.38;;
25721;SDS011;13578;53.450;15.496;2024-01-10T04:45:25;119.80;;;46.47;;
25721;SDS011;13578;53.450;15.496;2024-01-10T04:48:26;106.38;;;46.10;;
25721;SDS011;13578;53.450;15.496;2024-01-10T04:51:27;105.95;;;46.28;;
25721;SDS011;13578;53.450;15.496;2024-01-10T04:54:27;104.63;;;48.08;;
25721;SDS011;13578;53.450;15.496;2024-01-10T04:57:28;95.72;;;46.50;;
25721;SDS011;13578;53.450;15.496;2024-01-10T05:00:29;100.97;;;46.47;;
25721;SDS011;13578;53.450;15.496;2024-01-10T05:03:30;101.55;;;44.38;;
25721;SDS011;13578;53.450;15.496;2024-01-10T05:06:30;99.68;;;42.70;;
25721;SDS011;13578;53.450;15.496;2024-01-10T05:09:31;96.22;;;43.63;;
25721;SDS011;13578;53.450;15.496;2024-01-10T05:12:32;105.53;;;39.90;;
25721;SDS011;13578;53.450;15.496;2024-01-10T05:15:33;77.40;;;34.67;;
25721;SDS011;13578;53.450;15.496;2024-01-10T05:18:33;78.45;;;35.83;;
25721;SDS011;13578;53.450;15.496;2024-01-10T05:21:34;76.00;;;35.45;;
25721;SDS011;13578;53.450;15.496;2024-01-10T05:24:35;67.68;;;35.83;;
25721;SDS011;13578;53.450;15.496;2024-01-10T05:27:35;58.65;;;31.92;;
25721;SDS011;13578;53.450;15.496;2024-01-10T05:30:36;65.30;;;31.20;;
25721;SDS011;13578;53.450;15.496;2024-01-10T05:33:37;55.28;;;28.90;;
25721;SDS011;13578;53.450;15.496;2024-01-10T05:36:37;65.68;;;34.08;;
25721;SDS011;13578;53.450;15.496;2024-01-10T05:39:38;80.22;;;31.52;;
25721;SDS011;13578;53.450;15.496;2024-01-10T05:42:39;65.35;;;33.33;;
25721;SDS011;13578;53.450;15.496;2024-01-10T05:45:39;38.72;;;20.33;;
25721;SDS011;13578;53.450;15.496;2024-01-10T05:48:40;33.42;;;18.10;;
25721;SDS011;13578;53.450;15.496;2024-01-10T05:51:41;32.83;;;20.42;;
25721;SDS011;13578;53.450;15.496;2024-01-10T05:54:41;23.88;;;16.55;;
25721;SDS011;13578;53.450;15.496;2024-01-10T05:57:42;66.80;;;29.65;;
25721;SDS011;13578;53.450;15.496;2024-01-10T06:00:43;70.38;;;33.85;;
25721;SDS011;13578;53.450;15.496;2024-01-10T06:03:44;71.45;;;31.33;;
25721;SDS011;13578;53.450;15.496;2024-01-10T06:06:44;65.20;;;32.33;;
25721;SDS011;13578;53.450;15.496;2024-01-10T06:09:45;60.85;;;29.98;;
25721;SDS011;13578;53.450;15.496;2024-01-10T06:12:46;72.53;;;31.92;;
25721;SDS011;13578;53.450;15.496;2024-01-10T06:15:49;66.78;;;32.45;;
25721;SDS011;13578;53.450;15.496;2024-01-10T06:18:50;78.28;;;36.60;;
25721;SDS011;13578;53.450;15.496;2024-01-10T06:21:51;65.80;;;30.88;;
25721;SDS011;13578;53.450;15.496;2024-01-10T06:24:52;68.10;;;32.95;;
25721;SDS011;13578;53.450;15.496;2024-01-10T06:27:53;68.13;;;29.73;;
25721;SDS011;13578;53.450;15.496;2024-01-10T06:30:53;44.65;;;23.95;;
25721;SDS011;13578;53.450;15.496;2024-01-10T06:33:54;38.00;;;15.32;;
25721;SDS011;13578;53.450;15.496;2024-01-10T06:36:55;27.00;;;12.98;;
25721;SDS011;13578;53.450;15.496;2024-01-10T06:39:57;22.92;;;14.18;;
25721;SDS011;13578;53.450;15.496;2024-01-10T06:42:57;37.95;;;15.23;;
25721;SDS011;13578;53.450;15.496;2024-01-10T06:45:58;23.92;;;15.10;;
25721;SDS011;13578;53.450;15.496;2024-01-10T06:48:59;26.38;;;13.48;;
25721;SDS011;13578;53.450;15.496;2024-01-10T06:52:00;29.30;;;15.00;;
25721;SDS011;13578;53.450;15.496;2024-01-10T06:55:00;41.00;;;18.58;;
25721;SDS011;13578;53.450;15.496;2024-01-10T06:58:01;37.15;;;19.23;;
25721;SDS011;13578;53.450;15.496;2024-01-10T07:01:03;29.20;;;18.25;;
25721;SDS011;13578;53.450;15.496;2024-01-10T07:04:06;32.42;;;18.35;;
25721;SDS011;13578;53.450;15.496;2024-01-10T07:07:07;32.33;;;17.15;;
25721;SDS011;13578;53.450;15.496;2024-01-10T07:10:08;41.20;;;19.55;;
25721;SDS011;13578;53.450;15.496;2024-01-10T07:13:10;36.83;;;18.13;;
25721;SDS011;13578;53.450;15.496;2024-01-10T07:16:11;34.85;;;18.80;;
25721;SDS011;13578;53.450;15.496;2024-01-10T07:19:15;48.42;;;23.73;;
25721;SDS011;13578;53.450;15.496;2024-01-10T07:22:15;55.45;;;23.90;;
25721;SDS011;13578;53.450;15.496;2024-01-10T07:25:18;42.85;;;22.88;;
25721;SDS011;13578;53.450;15.496;2024-01-10T07:28:18;49.92;;;24.05;;
25721;SDS011;13578;53.450;15.496;2024-01-10T07:31:19;58.92;;;24.20;;
25721;SDS011;13578;53.450;15.496;2024-01-10T07:34:20;53.75;;;25.25;;
25721;SDS011;13578;53.450;15.496;2024-01-10T07:37:21;46.95;;;25.92;;
25721;SDS011;13578;53.450;15.496;2024-01-10T07:40:22;68.40;;;35.33;;
25721;SDS011;13578;53.450;15.496;2024-01-10T07:43:23;66.80;;;31.60;;
25721;SDS011;13578;53.450;15.496;2024-01-10T07:46:23;54.42;;;24.83;;
25721;SDS011;13578;53.450;15.496;2024-01-10T07:49:24;47.88;;;24.67;;
25721;SDS011;13578;53.450;15.496;2024-01-10T07:52:26;51.08;;;25.00;;
25721;SDS011;13578;53.450;15.496;2024-01-10T07:55:27;48.33;;;26.42;;
25721;SDS011;13578;53.450;15.496;2024-01-10T07:58:29;42.42;;;23.00;;
25721;SDS011;13578;53.450;15.496;2024-01-10T08:01:30;48.53;;;23.38;;
25721;SDS011;13578;53.450;15.496;2024-01-10T08:04:31;52.90;;;25.27;;
25721;SDS011;13578;53.450;15.496;2024-01-10T08:07:31;60.90;;;27.30;;
25721;SDS011;13578;53.450;15.496;2024-01-10T08:10:37;62.63;;;27.90;;
25721;SDS011;13578;53.450;15.496;2024-01-10T08:13:37;45.67;;;23.05;;
25721;SDS011;13578;53.450;15.496;2024-01-10T08:16:38;42.53;;;23.48;;
25721;SDS011;13578;53.450;15.496;2024-01-10T08:19:38;49.78;;;23.80;;
25721;SDS011;13578;53.450;15.496;2024-01-10T08:22:39;54.67;;;25.55;;
25721;SDS011;13578;53.450;15.496;2024-01-10T08:25:40;49.15;;;24.33;;
25721;SDS011;13578;53.450;15.496;2024-01-10T08:28:44;39.72;;;22.35;;
25721;SDS011;13578;53.450;15.496;2024-01-10T08:31:44;48.10;;;23.17;;
25721;SDS011;13578;53.450;15.496;2024-01-10T08:34:45;34.85;;;21.33;;
25721;SDS011;13578;53.450;15.496;2024-01-10T08:37:46;46.55;;;22.45;;
25721;SDS011;13578;53.450;15.496;2024-01-10T08:40:47;32.53;;;19.02;;
25721;SDS011;13578;53.450;15.496;2024-01-10T08:43:47;38.10;;;17.52;;
25721;SDS011;13578;53.450;15.496;2024-01-10T08:46:48;29.40;;;15.68;;
25721;SDS011;13578;53.450;15.496;2024-01-10T08:49:51;31.00;;;16.75;;
25721;SDS011;13578;53.450;15.496;2024-01-10T08:52:51;34.22;;;17.17;;
25721;SDS011;13578;53.450;15.496;2024-01-10T08:55:52;32.85;;;16.65;;
25721;SDS011;13578;53.450;15.496;2024-01-10T08:58:52;35.42;;;17.40;;
25721;SDS011;13578;53.450;15.496;2024-01-10T09:01:53;28.17;;;17.83;;
25721;SDS011;13578;53.450;15.496;2024-01-10T09:04:54;27.88;;;16.50;;
25721;SDS011;13578;53.450;15.496;2024-01-10T09:07:55;29.75;;;17.08;;
25721;SDS011;13578;53.450;15.496;2024-01-10T09:10:55;43.47;;;23.20;;
25721;SDS011;13578;53.450;15.496;2024-01-10T09:13:56;44.88;;;22.45;;
25721;SDS011;13578;53.450;15.496;2024-01-10T09:16:57;40.38;;;19.67;;
25721;SDS011;13578;53.450;15.496;2024-01-10T09:20:02;34.60;;;18.08;;
25721;SDS011;13578;53.450;15.496;2024-01-10T09:23:03;39.42;;;20.58;;
25721;SDS011;13578;53.450;15.496;2024-01-10T09:26:04;44.47;;;20.23;;
25721;SDS011;13578;53.450;15.496;2024-01-10T09:29:04;42.00;;;20.50;;
25721;SDS011;13578;53.450;15.496;2024-01-10T09:32:05;53.00;;;22.48;;
25721;SDS011;13578;53.450;15.496;2024-01-10T09:35:06;64.00;;;23.05;;
25721;SDS011;13578;53.450;15.496;2024-01-10T09:38:08;62.83;;;25.92;;
25721;SDS011;13578;53.450;15.496;2024-01-10T09:41:09;49.50;;;22.00;;
25721;SDS011;13578;53.450;15.496;2024-01-10T09:44:12;56.90;;;22.85;;
25721;SDS011;13578;53.450;15.496;2024-01-10T09:47:13;59.60;;;25.23;;
25721;SDS011;13578;53.450;15.496;2024-01-10T09:50:16;67.82;;;24.60;;
25721;SDS011;13578;53.450;15.496;2024-01-10T09:53:24;50.92;;;23.75;;
25721;SDS011;13578;53.450;15.496;2024-01-10T09:56:30;52.95;;;24.67;;
25721;SDS011;13578;53.450;15.496;2024-01-10T09:59:32;60.50;;;22.75;;
25721;SDS011;13578;53.450;15.496;2024-01-10T10:02:33;42.33;;;19.58;;
25721;SDS011;13578;53.450;15.496;2024-01-10T10:05:35;48.63;;;21.33;;
25721;SDS011;13578;53.450;15.496;2024-01-10T10:08:35;35.22;;;18.95;;
25721;SDS011;13578;53.450;15.496;2024-01-10T10:11:37;50.25;;;19.35;;
25721;SDS011;13578;53.450;15.496;2024-01-10T10:14:38;38.00;;;19.15;;
25721;SDS011;13578;53.450;15.496;2024-01-10T10:17:39;38.83;;;19.58;;
25721;SDS011;13578;53.450;15.496;2024-01-10T10:20:46;53.42;;;22.40;;
25721;SDS011;13578;53.450;15.496;2024-01-10T10:23:59;47.33;;;22.55;;
25721;SDS011;13578;53.450;15.496;2024-01-10T10:27:01;47.72;;;20.90;;
25721;SDS011;13578;53.450;15.496;2024-01-10T10:30:01;56.55;;;23.55;;
25721;SDS011;13578;53.450;15.496;2024-01-10T10:33:04;61.50;;;23.55;;
25721;SDS011;13578;53.450;15.496;2024-01-10T10:36:05;40.80;;;21.33;;
25721;SDS011;13578;53.450;15.496;2024-01-10T10:39:06;50.60;;;20.83;;
25721;SDS011;13578;53.450;15.496;2024-01-10T10:42:13;52.10;;;22.60;;
25721;SDS011;13578;53.450;15.496;2024-01-10T10:45:16;46.65;;;23.80;;
25721;SDS011;13578;53.450;15.496;2024-01-10T10:48:18;52.92;;;21.70;;
25721;SDS011;13578;53.450;15.496;2024-01-10T10:51:27;51.05;;;22.85;;
25721;SDS011;13578;53.450;15.496;2024-01-10T10:54:32;65.65;;;23.58;;
25721;SDS011;13578;53.450;15.496;2024-01-10T10:57:34;59.13;;;23.90;;
25721;SDS011;13578;53.450;15.496;2024-01-10T11:00:35;53.63;;;21.88;;
25721;SDS011;13578;53.450;15.496;2024-01-10T11:03:38;57.85;;;23.80;;
25721;SDS011;13578;53.450;15.496;2024-01-10T11:06:40;53.55;;;23.95;;
25721;SDS011;13578;53.450;15.496;2024-01-10T11:09:42;59.05;;;22.70;;
25721;SDS011;13578;53.450;15.496;2024-01-10T11:19:35;43.58;;;20.83;;
25721;SDS011;13578;53.450;15.496;2024-01-10T11:23:00;52.15;;;22.48;;
25721;SDS011;13578;53.450;15.496;2024-01-10T11:26:18;51.85;;;23.08;;
25721;SDS011;13578;53.450;15.496;2024-01-10T11:29:20;58.90;;;23.85;;
25721;SDS011;13578;53.450;15.496;2024-01-10T11:32:22;56.13;;;24.75;;
25721;SDS011;13578;53.450;15.496;2024-01-10T11:35:26;103.07;;;44.33;;
25721;SDS011;13578;53.450;15.496;2024-01-10T11:38:27;74.57;;;33.63;;
25721;SDS011;13578;53.450;15.496;2024-01-10T11:44:32;51.33;;;23.63;;
25721;SDS011;13578;53.450;15.496;2024-01-10T11:47:33;51.05;;;23.73;;
25721;SDS011;13578;53.450;15.496;2024-01-10T11:50:34;58.83;;;26.60;;
25721;SDS011;13578;53.450;15.496;2024-01-10T11:53:41;57.15;;;24.63;;
25721;SDS011;13578;53.450;15.496;2024-01-10T11:56:46;47.13;;;22.55;;
25721;SDS011;13578;53.450;15.496;2024-01-10T11:59:46;65.78;;;33.95;;
25721;SDS011;13578;53.450;15.496;2024-01-10T12:02:50;55.97;;;27.48;;
25721;SDS011;13578;53.450;15.496;2024-01-10T12:05:50;53.55;;;25.05;;
25721;SDS011;13578;53.450;15.496;2024-01-10T12:08:51;54.47;;;23.40;;
25721;SDS011;13578;53.450;15.496;2024-01-10T12:11:52;53.50;;;25.50;;
25721;SDS011;13578;53.450;15.496;2024-01-10T12:14:52;44.33;;;22.08;;
25721;SDS011;13578;53.450;15.496;2024-01-10T12:17:53;45.65;;;20.63;;
25721;SDS011;13578;53.450;15.496;2024-01-10T12:20:54;50.42;;;23.95;;
25721;SDS011;13578;53.450;15.496;2024-01-10T12:23:55;60.47;;;23.73;;
25721;SDS011;13578;53.450;15.496;2024-01-10T12:26:56;60.50;;;24.48;;
25721;SDS011;13578;53.450;15.496;2024-01-10T12:29:56;57.08;;;24.08;;
25721;SDS011;13578;53.450;15.496;2024-01-10T12:33:02;55.53;;;25.73;;
25721;SDS011;13578;53.450;15.496;2024-01-10T12:36:04;57.60;;;24.35;;
25721;SDS011;13578;53.450;15.496;2024-01-10T12:39:09;51.90;;;21.83;;
25721;SDS011;13578;53.450;15.496;2024-01-10T12:42:11;48.42;;;22.75;;
25721;SDS011;13578;53.450;15.496;2024-01-10T12:45:24;49.65;;;20.88;;
25721;SDS011;13578;53.450;15.496;2024-01-10T12:48:24;40.42;;;20.35;;
25721;SDS011;13578;53.450;15.496;2024-01-10T12:51:26;39.70;;;20.02;;
25721;SDS011;13578;53.450;15.496;2024-01-10T12:54:29;43.10;;;20.77;;
25721;SDS011;13578;53.450;15.496;2024-01-10T12:57:29;43.60;;;20.83;;
25721;SDS011;13578;53.450;15.496;2024-01-10T13:00:30;49.70;;;21.52;;
25721;SDS011;13578;53.450;15.496;2024-01-10T13:03:35;46.28;;;23.63;;
25721;SDS011;13578;53.450;15.496;2024-01-10T13:06:35;64.45;;;30.15;;
25721;SDS011;13578;53.450;15.496;2024-01-10T13:09:36;49.03;;;23.85;;
25721;SDS011;13578;53.450;15.496;2024-01-10T13:12:37;48.50;;;24.15;;
25721;SDS011;13578;53.450;15.496;2024-01-10T13:15:38;67.90;;;25.67;;
25721;SDS011;13578;53.450;15.496;2024-01-10T13:18:38;56.08;;;26.10;;
25721;SDS011;13578;53.450;15.496;2024-01-10T13:21:39;47.22;;;23.67;;
25721;SDS011;13578;53.450;15.496;2024-01-10T13:24:40;53.50;;;24.58;;
25721;SDS011;13578;53.450;15.496;2024-01-10T13:27:42;71.10;;;27.95;;
25721;SDS011;13578;53.450;15.496;2024-01-10T13:30:42;58.58;;;26.35;;
25721;SDS011;13578;53.450;15.496;2024-01-10T13:33:43;60.83;;;25.42;;
25721;SDS011;13578;53.450;15.496;2024-01-10T13:36:43;66.47;;;27.08;;
25721;SDS011;13578;53.450;15.496;2024-01-10T13:39:44;68.38;;;28.73;;
25721;SDS011;13578;53.450;15.496;2024-01-10T13:42:45;63.80;;;27.00;;
25721;SDS011;13578;53.450;15.496;2024-01-10T13:45:45;66.70;;;27.65;;
25721;SDS011;13578;53.450;15.496;2024-01-10T13:48:46;65.03;;;29.48;;
25721;SDS011;13578;53.450;15.496;2024-01-10T13:51:46;74.80;;;26.42;;
25721;SDS011;13578;53.450;15.496;2024-01-10T13:54:47;78.05;;;30.52;;
25721;SDS011;13578;53.450;15.496;2024-01-10T13:57:47;76.03;;;28.25;;
25721;SDS011;13578;53.450;15.496;2024-01-10T14:00:48;83.50;;;28.95;;
25721;SDS011;13578;53.450;15.496;2024-01-10T14:03:49;65.07;;;27.83;;
25721;SDS011;13578;53.450;15.496;2024-01-10T14:06:49;71.85;;;28.92;;
25721;SDS011;13578;53.450;15.496;2024-01-10T14:09:51;70.63;;;30.50;;
25721;SDS011;13578;53.450;15.496;2024-01-10T14:12:54;78.30;;;31.55;;
25721;SDS011;13578;53.450;15.496;2024-01-10T14:15:55;71.55;;;30.98;;
25721;SDS011;13578;53.450;15.496;2024-01-10T14:18:55;79.75;;;30.90;;
25721;SDS011;13578;53.450;15.496;2024-01-10T14:21:56;82.28;;;33.72;;
25721;SDS011;13578;53.450;15.496;2024-01-10T14:24:56;82.40;;;31.95;;
25721;SDS011;13578;53.450;15.496;2024-01-10T14:27:57;83.80;;;33.70;;
25721;SDS011;13578;53.450;15.496;2024-01-10T14:30:59;71.95;;;30.75;;
25721;SDS011;13578;53.450;15.496;2024-01-10T14:34:00;73.03;;;29.23;;
25721;SDS011;13578;53.450;15.496;2024-01-10T14:37:01;62.40;;;28.38;;
25721;SDS011;13578;53.450;15.496;2024-01-10T14:40:02;69.43;;;29.17;;
25721;SDS011;13578;53.450;15.496;2024-01-10T14:43:03;73.60;;;29.13;;
25721;SDS011;13578;53.450;15.496;2024-01-10T14:46:04;52.05;;;25.48;;
25721;SDS011;13578;53.450;15.496;2024-01-10T14:49:08;59.13;;;26.27;;
25721;SDS011;13578;53.450;15.496;2024-01-10T14:52:08;58.80;;;26.65;;
25721;SDS011;13578;53.450;15.496;2024-01-10T14:55:09;57.90;;;25.75;;
25721;SDS011;13578;53.450;15.496;2024-01-10T14:58:10;67.28;;;28.73;;
25721;SDS011;13578;53.450;15.496;2024-01-10T15:01:10;74.95;;;31.00;;
25721;SDS011;13578;53.450;15.496;2024-01-10T15:04:11;80.15;;;25.33;;
25721;SDS011;13578;53.450;15.496;2024-01-10T15:07:13;63.88;;;23.85;;
25721;SDS011;13578;53.450;15.496;2024-01-10T15:10:14;60.83;;;24.50;;
25721;SDS011;13578;53.450;15.496;2024-01-10T15:13:15;63.15;;;25.85;;
25721;SDS011;13578;53.450;15.496;2024-01-10T15:16:18;72.45;;;26.60;;
25721;SDS011;13578;53.450;15.496;2024-01-10T15:19:20;60.10;;;25.77;;
25721;SDS011;13578;53.450;15.496;2024-01-10T15:22:21;76.90;;;28.70;;
25721;SDS011;13578;53.450;15.496;2024-01-10T15:25:24;79.07;;;28.98;;
25721;SDS011;13578;53.450;15.496;2024-01-10T15:28:25;113.72;;;30.55;;
25721;SDS011;13578;53.450;15.496;2024-01-10T15:31:26;73.85;;;27.98;;
25721;SDS011;13578;53.450;15.496;2024-01-10T15:34:29;77.88;;;29.15;;
25721;SDS011;13578;53.450;15.496;2024-01-10T15:37:30;87.43;;;32.45;;
25721;SDS011;13578;53.450;15.496;2024-01-10T15:40:30;96.00;;;29.90;;
25721;SDS011;13578;53.450;15.496;2024-01-10T15:43:31;84.47;;;31.35;;
25721;SDS011;13578;53.450;15.496;2024-01-10T15:46:31;84.85;;;31.45;;
25721;SDS011;13578;53.450;15.496;2024-01-10T15:49:32;75.22;;;29.52;;
25721;SDS011;13578;53.450;15.496;2024-01-10T15:52:33;112.82;;;41.80;;
25721;SDS011;13578;53.450;15.496;2024-01-10T15:55:34;94.55;;;37.30;;
25721;SDS011;13578;53.450;15.496;2024-01-10T15:58:36;83.72;;;28.70;;
25721;SDS011;13578;53.450;15.496;2024-01-10T16:01:38;129.13;;;45.13;;
25721;SDS011;13578;53.450;15.496;2024-01-10T16:04:38;96.82;;;35.60;;
25721;SDS011;13578;53.450;15.496;2024-01-10T16:07:39;125.03;;;49.88;;
25721;SDS011;13578;53.450;15.496;2024-01-10T16:10:39;145.68;;;58.80;;
25721;SDS011;13578;53.450;15.496;2024-01-10T16:13:42;120.60;;;53.17;;
25721;SDS011;13578;53.450;15.496;2024-01-10T16:16:42;69.43;;;32.13;;
25721;SDS011;13578;53.450;15.496;2024-01-10T16:19:43;76.80;;;29.55;;
25721;SDS011;13578;53.450;15.496;2024-01-10T16:22:44;75.85;;;28.95;;
25721;SDS011;13578;53.450;15.496;2024-01-10T16:25:45;92.05;;;33.65;;
25721;SDS011;13578;53.450;15.496;2024-01-10T16:28:47;75.65;;;30.00;;
25721;SDS011;13578;53.450;15.496;2024-01-10T16:31:48;73.47;;;28.13;;
25721;SDS011;13578;53.450;15.496;2024-01-10T16:34:48;74.20;;;28.73;;
25721;SDS011;13578;53.450;15.496;2024-01-10T16:37:50;99.13;;;31.70;;
25721;SDS011;13578;53.450;15.496;2024-01-10T16:40:50;100.30;;;32.58;;
25721;SDS011;13578;53.450;15.496;2024-01-10T16:43:51;93.20;;;34.17;;
25721;SDS011;13578;53.450;15.496;2024-01-10T16:46:52;93.97;;;34.15;;
25721;SDS011;13578;53.450;15.496;2024-01-10T16:49:53;84.60;;;30.75;;
25721;SDS011;13578;53.450;15.496;2024-01-10T16:52:54;86.15;;;32.47;;
25721;SDS011;13578;53.450;15.496;2024-01-10T16:55:54;82.78;;;30.20;;
25721;SDS011;13578;53.450;15.496;2024-01-10T16:58:56;66.65;;;26.88;;
25721;SDS011;13578;53.450;15.496;2024-01-10T17:01:56;60.92;;;26.30;;
25721;SDS011;13578;53.450;15.496;2024-01-10T17:04:57;88.68;;;28.38;;
25721;SDS011;13578;53.450;15.496;2024-01-10T17:07:58;76.95;;;29.13;;
25721;SDS011;13578;53.450;15.496;2024-01-10T17:10:58;99.15;;;32.13;;
25721;SDS011;13578;53.450;15.496;2024-01-10T17:14:03;96.30;;;32.05;;
25721;SDS011;13578;53.450;15.496;2024-01-10T17:17:04;84.93;;;31.48;;
25721;SDS011;13578;53.450;15.496;2024-01-10T17:20:04;96.47;;;32.20;;
25721;SDS011;13578;53.450;15.496;2024-01-10T17:23:08;99.78;;;32.50;;
25721;SDS011;13578;53.450;15.496;2024-01-10T17:26:08;76.75;;;28.45;;
25721;SDS011;13578;53.450;15.496;2024-01-10T17:29:09;93.55;;;33.28;;
25721;SDS011;13578;53.450;15.496;2024-01-10T17:32:09;91.25;;;33.53;;
25721;SDS011;13578;53.450;15.496;2024-01-10T17:35:10;77.85;;;29.63;;